»·PEaware :: N2494V KTCC-KABQ

N2494V :: KTCC-KABQ

FLIGHT INFORMATION

Flight Status: Arrived
Operator: Privately registered:
United States
More flights under this callsign
Pilot: Sally S. (18014)
Aircraft: Unknown
(DA62)
More flights by this aircraft type
Origin: KTCC Tucumcari Mun
United States
Destination: KABQ Albuquerque Intl Sunport
United States
More flights between these airports :: More routes between these airports
Route: +V12 ABQ
File this flight plan on PilotEdge
Remarks:
Altitude:
(Current/Filed)
10,500ft
Speed:
(Current/Filed)
160kts
Departed: 10-Apr-18 09:55 AM
Arrived: 10-Apr-18 11:11 AM
Distance/Time
Traveled:
148nm/1:15
Distance/Time
To Go:
Arrived

Flight Plot

Page will automatically refresh every two minutes.

Flight plan parsing failed; only flown route is shown


Map Options




Map Legend


Flown Route
Filed Route
Departure Airport
Arrival Airport
Navaid (VOR, NDB)
Fix

Horizontal Profiles

Position Reports

Time Latitude Longitude Heading Altitude Ground
Speed
10-Apr-18 09:48 35.188505 -103.594533 224 4069ft 0kts
10-Apr-18 09:49 35.188505 -103.594533 224 4069ft 0kts
10-Apr-18 09:50 35.188505 -103.594533 224 4069ft 0kts
10-Apr-18 09:51 35.188505 -103.594533 224 4069ft 0kts
10-Apr-18 09:52 35.188505 -103.594533 224 4069ft 0kts
10-Apr-18 09:53 35.188505 -103.594533 224 4069ft 0kts
10-Apr-18 09:54 35.181656 -103.602666 223 4175ft 100kts
10-Apr-18 09:55 35.167964 -103.626041 267 5693ft 92kts
10-Apr-18 09:56 35.167764 -103.659432 266 6975ft 103kts
10-Apr-18 09:57 35.166909 -103.694487 267 8175ft 103kts
10-Apr-18 09:58 35.165759 -103.730037 268 9284ft 106kts
10-Apr-18 09:59 35.164459 -103.767463 268 10223ft 122kts
10-Apr-18 10:00 35.162830 -103.812762 268 10514ft 146kts
10-Apr-18 10:01 35.160916 -103.864395 268 10510ft 155kts
10-Apr-18 10:02 35.158951 -103.917082 268 10509ft 156kts
10-Apr-18 10:03 35.156959 -103.970049 268 10511ft 155kts
10-Apr-18 10:04 35.154948 -104.022696 268 10512ft 155kts
10-Apr-18 10:05 35.152909 -104.075426 268 10514ft 155kts
10-Apr-18 10:06 35.150847 -104.128141 268 10516ft 155kts
10-Apr-18 10:07 35.148761 -104.180877 268 10517ft 155kts
10-Apr-18 10:08 35.146633 -104.233903 268 10518ft 158kts
10-Apr-18 10:09 35.144443 -104.287937 268 10517ft 159kts
10-Apr-18 10:10 35.142233 -104.341974 268 10517ft 159kts
10-Apr-18 10:11 35.139995 -104.396167 268 10498ft 161kts
10-Apr-18 10:12 35.137720 -104.450630 268 10480ft 160kts
10-Apr-18 10:13 35.135428 -104.504878 268 10480ft 159kts
10-Apr-18 10:14 35.133115 -104.559066 268 10479ft 159kts
10-Apr-18 10:15 35.130789 -104.613029 268 10478ft 159kts
10-Apr-18 10:16 35.128475 -104.666099 267 10455ft 160kts
10-Apr-18 10:17 35.126124 -104.719536 267 10455ft 160kts
10-Apr-18 10:18 35.123711 -104.773895 267 10455ft 160kts
10-Apr-18 10:19 35.121277 -104.828137 267 10454ft 160kts
10-Apr-18 10:20 35.118832 -104.882095 267 10454ft 159kts
10-Apr-18 10:21 35.116353 -104.936066 268 10457ft 159kts
10-Apr-18 10:22 35.113863 -104.989834 268 10460ft 158kts
10-Apr-18 10:23 35.111386 -105.043452 269 10462ft 158kts
10-Apr-18 10:24 35.109213 -105.096915 269 10464ft 157kts
10-Apr-18 10:25 35.107031 -105.150283 269 10467ft 157kts
10-Apr-18 10:26 35.104838 -105.203380 269 10470ft 157kts
10-Apr-18 10:27 35.102616 -105.256449 269 10473ft 156kts
10-Apr-18 10:28 35.100370 -105.309542 269 10477ft 156kts
10-Apr-18 10:29 35.098095 -105.362761 269 10480ft 156kts
10-Apr-18 10:30 35.095815 -105.415682 269 10486ft 156kts
10-Apr-18 10:31 35.093508 -105.468600 269 10491ft 156kts
10-Apr-18 10:32 35.091172 -105.521573 269 10497ft 156kts
10-Apr-18 10:33 35.088811 -105.574623 268 10503ft 156kts
10-Apr-18 10:34 35.086300 -105.628247 273 10511ft 163kts
10-Apr-18 10:35 35.083887 -105.683582 272 10511ft 167kts
10-Apr-18 10:36 35.081290 -105.740380 272 10511ft 168kts
10-Apr-18 10:37 35.078636 -105.797643 272 10511ft 168kts
10-Apr-18 10:38 35.076054 -105.852863 272 10511ft 168kts
10-Apr-18 10:39 35.073351 -105.910112 272 10509ft 168kts
10-Apr-18 10:40 35.070700 -105.966227 271 10507ft 167kts
10-Apr-18 10:41 35.095525 -105.986860 35 10509ft 168kts
10-Apr-18 10:42 35.129173 -105.946453 38 10508ft 169kts
10-Apr-18 10:43 35.162589 -105.905994 38 10510ft 168kts
10-Apr-18 10:44 35.195726 -105.865940 38 10510ft 167kts
10-Apr-18 10:45 35.228879 -105.825888 38 10509ft 168kts
10-Apr-18 10:46 35.263863 -105.783743 38 10509ft 182kts
10-Apr-18 10:47 35.294236 -105.747292 38 10505ft 184kts
10-Apr-18 10:48 35.330103 -105.704176 36 10498ft 184kts
10-Apr-18 10:49 35.349801 -105.730441 252 10502ft 159kts
10-Apr-18 10:50 35.332684 -105.780868 250 10503ft 160kts
10-Apr-18 10:51 35.315223 -105.830857 250 10508ft 160kts
10-Apr-18 10:52 35.296969 -105.882768 253 10511ft 172kts
10-Apr-18 10:53 35.277942 -105.936907 252 10519ft 174kts
10-Apr-18 10:54 35.258665 -105.991543 252 10519ft 175kts
10-Apr-18 10:55 35.224294 -106.033445 229 10519ft 182kts
10-Apr-18 10:56 35.195033 -106.082662 242 10519ft 178kts
10-Apr-18 10:57 35.168053 -106.133179 242 10516ft 177kts
10-Apr-18 10:58 35.141851 -106.183589 247 10513ft 173kts
10-Apr-18 10:59 35.119203 -106.235888 248 10301ft 182kts
10-Apr-18 11:00 35.099182 -106.294881 253 9511ft 192kts
10-Apr-18 11:01 35.080681 -106.356114 255 8515ft 188kts
10-Apr-18 11:02 35.064247 -106.415108 255 7553ft 180kts
10-Apr-18 11:03 35.051202 -106.470198 259 7150ft 168kts
10-Apr-18 11:04 35.041024 -106.524604 261 6653ft 158kts
10-Apr-18 11:05 35.032431 -106.570971 261 6606ft 129kts
10-Apr-18 11:06 35.015217 -106.605010 221 6615ft 120kts
10-Apr-18 11:07 34.992421 -106.632260 234 6602ft 113kts
10-Apr-18 11:08 35.007215 -106.645877 29 5996ft 101kts
10-Apr-18 11:09 35.026855 -106.625025 38 5369ft 83kts
10-Apr-18 11:10 35.034389 -106.617780 310 5358ft 11kts
10-Apr-18 11:11 35.034827 -106.618732 161 5358ft 0kts
10-Apr-18 11:12 35.034827 -106.618732 161 5358ft 0kts
10-Apr-18 11:13 35.034827 -106.618732 161 5358ft 0kts
10-Apr-18 11:14 35.034827 -106.618732 161 5358ft 0kts
10-Apr-18 11:15 35.034827 -106.618732 161 5358ft 0kts
10-Apr-18 11:16 35.034827 -106.618732 161 5358ft 0kts
10-Apr-18 11:17 35.034827 -106.618732 161 5358ft 0kts
10-Apr-18 11:18 35.034827 -106.618732 161 5358ft 0kts
10-Apr-18 11:19 35.034827 -106.618732 161 5358ft 0kts
10-Apr-18 11:20 35.034827 -106.618732 161 5358ft 0kts
10-Apr-18 11:21 35.034827 -106.618732 161 5358ft 0kts
10-Apr-18 11:22 35.034827 -106.618732 161 5358ft 0kts
10-Apr-18 11:23 35.034827 -106.618732 161 5358ft 0kts
10-Apr-18 11:24 35.034827 -106.618732 161 5358ft 0kts

Navigation Log

Ident Type
Flight plan parsing failed, navigation log unavailable